Time;durP1;ratioP1;P1;durP2;ratioP2;P2;SDS_P1;SDS_P2;PMS_P1;PMS_P2;Temp;Humidity;BMP_temperature;BMP_pressure;BME280_temperature;BME280_humidity;BME280_pressure;Samples;Min_cycle;Max_cycle;Signal;HPM_P1;HPM_P2
2021/07/07 04:49:57;;;;;;;13.72;7.00;;;;;;;31.55;53.21;98737.64;1717346;82;21234;-44
2021/07/07 04:52:25;;;;;;;12.47;6.92;;;;;;;31.46;53.08;98750.05;1717489;83;21561;-44
2021/07/07 04:54:52;;;;;;;13.00;6.85;;;;;;;31.46;52.77;98756.86;1730217;82;21042;-43
2021/07/07 04:57:20;;;;;;;9.13;6.33;;;;;;;31.34;52.73;98747.39;1735969;82;21062;-43
2021/07/07 04:59:47;;;;;;;10.88;6.87;;;;;;;31.42;53.33;98746.43;1732547;82;21037;-51
2021/07/07 05:02:17;;;;;;;13.80;6.37;;;;;;;31.72;51.87;98747.64;1732011;82;21042;-50
2021/07/07 05:04:51;;;;;;;11.23;6.87;;;;;;;31.81;50.95;98758.95;1725129;83;21203;-49
2021/07/07 05:07:27;;;;;;;9.53;6.17;;;;;;;31.88;50.93;98761.85;1735040;81;20995;-54
2021/07/07 05:09:56;;;;;;;15.85;6.37;;;;;;;31.87;51.02;98763.78;1695292;83;21011;-53
2021/07/07 05:12:24;;;;;;;16.40;6.40;;;;;;;31.92;50.75;98758.66;1728023;81;21105;-51
2021/07/07 05:14:52;;;;;;;14.20;6.37;;;;;;;31.87;50.54;98762.42;1700723;81;21065;-49
2021/07/07 05:17:25;;;;;;;12.40;6.83;;;;;;;31.93;50.26;98761.02;1746986;81;21525;-56
2021/07/07 05:19:55;;;;;;;12.80;6.47;;;;;;;32.06;50.29;98767.20;1740588;82;21580;-51
2021/07/07 05:22:23;;;;;;;9.90;5.78;;;;;;;31.96;50.51;98763.05;1713018;82;21588;-47
2021/07/07 05:24:51;;;;;;;11.48;5.97;;;;;;;32.07;50.13;98763.32;1726940;81;21026;-50
2021/07/07 05:27:19;;;;;;;12.93;6.22;;;;;;;32.27;49.72;98774.29;1766528;81;21022;-46
2021/07/07 05:29:49;;;;;;;11.85;6.37;;;;;;;32.36;49.29;98770.84;1721704;81;21021;-47
2021/07/07 05:32:21;;;;;;;12.65;6.15;;;;;;;32.30;49.54;98768.14;1747533;82;21486;-49
2021/07/07 05:34:53;;;;;;;16.35;6.37;;;;;;;32.32;49.68;98775.39;1754928;81;21038;-53
2021/07/07 05:37:23;;;;;;;8.40;5.90;;;;;;;32.38;49.04;98772.64;1756874;81;21086;-48
2021/07/07 05:39:53;;;;;;;;;;;;;;;32.52;48.70;98772.97;1760895;81;21043;-53
2021/07/07 05:42:20;;;;;;;10.53;6.53;;;;;;;32.64;48.29;98781.05;1731221;83;20269;-52
2021/07/07 05:44:49;;;;;;;11.10;6.90;;;;;;;32.61;48.19;98776.86;1740389;81;21005;-57
2021/07/07 05:47:17;;;;;;;13.95;7.22;;;;;;;32.58;48.31;98781.68;1708061;82;21018;-53
2021/07/07 05:49:46;;;;;;;11.63;6.62;;;;;;;32.68;48.48;98784.62;1780999;80;21023;-52
2021/07/07 05:52:17;;;;;;;15.35;7.00;;;;;;;32.67;48.16;98787.13;1748218;81;21074;-44
2021/07/07 05:54:47;;;;;;;11.48;7.00;;;;;;;32.64;47.71;98787.08;1735201;81;21082;-49
2021/07/07 05:57:16;;;;;;;12.95;7.47;;;;;;;32.62;47.61;98797.53;1744077;81;21011;-47
2021/07/07 05:59:44;;;;;;;11.43;7.58;;;;;;;32.43;47.66;98796.91;1734128;81;21063;-45
2021/07/07 06:02:15;;;;;;;14.68;7.58;;;;;;;32.38;47.91;98797.19;1738271;82;21061;-55
2021/07/07 06:04:43;;;;;;;12.95;8.05;;;;;;;32.46;47.94;98798.38;1750567;80;21092;-47
2021/07/07 06:07:13;;;;;;;11.12;7.35;;;;;;;32.56;47.54;98794.86;1735189;82;21054;-48
2021/07/07 06:09:43;;;;;;;10.93;7.75;;;;;;;32.51;47.33;98797.28;1737953;81;21592;-46
2021/07/07 06:12:10;;;;;;;19.37;9.15;;;;;;;32.59;47.24;98800.98;1734581;82;21069;-42
2021/07/07 06:14:38;;;;;;;13.32;8.18;;;;;;;32.71;46.48;98798.14;1777643;80;21534;-44
2021/07/07 06:17:07;;;;;;;11.33;8.43;;;;;;;32.57;46.59;98808.72;1788705;79;21135;-46
2021/07/07 06:19:36;;;;;;;15.63;8.55;;;;;;;32.45;46.43;98804.95;1773756;80;21014;-56
2021/07/07 06:22:04;;;;;;;;;;;;;;;32.09;47.31;98816.12;1738254;81;21114;-48
2021/07/07 06:24:32;;;;;;;13.35;8.00;;;;;;;31.72;48.19;98813.61;1782528;80;20125;-46
2021/07/07 06:27:02;;;;;;;12.50;8.60;;;;;;;31.58;48.93;98816.72;1761460;80;21592;-48
2021/07/07 06:29:32;;;;;;;14.33;8.80;;;;;;;31.58;48.82;98818.08;1751508;81;21038;-54
2021/07/07 06:32:00;;;;;;;17.17;8.58;;;;;;;31.68;49.28;98818.16;1763484;81;21127;-44
2021/07/07 06:34:27;;;;;;;13.10;8.63;;;;;;;31.82;49.05;98819.91;1788973;80;20988;-41
2021/07/07 06:36:56;;;;;;;14.20;8.80;;;;;;;32.08;49.27;98826.23;1754942;81;21043;-46
2021/07/07 06:39:24;;;;;;;18.32;8.80;;;;;;;32.22;48.55;98833.39;1767578;81;21086;-44
2021/07/07 06:41:51;;;;;;;15.28;8.55;;;;;;;32.43;47.42;98829.65;1764366;80;21062;-42
2021/07/07 06:44:20;;;;;;;16.35;8.60;;;;;;;32.54;47.07;98832.63;1752639;80;21045;-55
2021/07/07 06:46:47;;;;;;;13.90;8.33;;;;;;;32.30;46.60;98834.38;1745620;82;21000;-44
2021/07/07 06:49:16;;;;;;;15.53;9.23;;;;;;;31.85;47.74;98832.06;1734143;81;21108;-45
2021/07/07 06:51:46;;;;;;;12.73;8.70;;;;;;;31.22;48.88;98838.06;1732810;81;21027;-47
2021/07/07 06:54:17;;;;;;;15.68;8.85;;;;;;;30.60;50.67;98837.90;1758914;80;21016;-58
2021/07/07 06:56:47;;;;;;;;;;;;;;;30.41;52.52;98843.91;1746628;81;21069;-42
2021/07/07 06:59:16;;;;;;;;;;;;;;;30.54;52.58;98844.70;1782114;79;20127;-46
2021/07/07 07:01:45;;;;;;;14.17;8.43;;;;;;;30.79;52.15;98840.85;1755117;81;20424;-44
2021/07/07 07:04:13;;;;;;;14.03;8.20;;;;;;;30.75;51.55;98847.34;1791294;80;21086;-59
2021/07/07 07:06:41;;;;;;;14.10;8.40;;;;;;;30.75;51.05;98853.58;1737807;81;21034;-63
2021/07/07 07:09:12;;;;;;;14.80;8.75;;;;;;;30.84;50.95;98843.34;1761232;80;20995;-44
2021/07/07 07:11:40;;;;;;;15.55;8.63;;;;;;;31.02;50.66;98834.35;1751455;80;21118;-49
2021/07/07 07:14:08;;;;;;;10.30;7.20;;;;;;;31.25;50.09;98837.95;1781995;80;20975;-50
2021/07/07 07:16:37;;;;;;;8.48;6.62;;;;;;;31.50;48.54;98836.75;1733783;81;21598;-56
2021/07/07 07:19:04;;;;;;;12.25;6.90;;;;;;;31.48;48.08;98842.30;1758757;80;21468;-44
2021/07/07 07:21:32;;;;;;;11.18;6.90;;;;;;;31.32;48.04;98838.18;1779720;79;21014;-51
2021/07/07 07:24:00;;;;;;;11.30;7.33;;;;;;;31.17;48.64;98834.22;1772480;81;21577;-43
2021/07/07 07:26:28;;;;;;;16.60;7.95;;;;;;;31.12;49.20;98837.97;1764586;80;21079;-46
2021/07/07 07:29:01;;;;;;;12.78;7.22;;;;;;;31.12;50.14;98840.69;1768502;80;21449;-49
2021/07/07 07:31:29;;;;;;;10.72;6.90;;;;;;;31.19;50.59;98840.09;1707166;84;21074;-48
2021/07/07 07:33:56;;;;;;;14.68;6.75;;;;;;;31.50;48.93;98844.92;1756594;81;20998;-52
2021/07/07 07:36:25;;;;;;;13.55;7.03;;;;;;;31.73;48.12;98835.05;1778587;80;21163;-49
2021/07/07 07:39:00;;;;;;;8.60;6.73;;;;;;;32.07;47.91;98844.31;1785258;80;21042;-51
2021/07/07 07:41:32;;;;;;;12.35;7.00;;;;;;;32.07;47.91;98844.31;1759940;81;21894;-46
2021/07/07 07:44:01;;;;;;;9.68;6.75;;;;;;;31.89;47.12;98832.96;1776231;80;21050;-51
2021/07/07 07:46:29;;;;;;;10.90;6.78;;;;;;;31.54;47.90;98850.45;1768141;80;21022;-41
2021/07/07 07:48:59;;;;;;;9.58;6.97;;;;;;;31.07;48.81;98839.56;1765735;80;20989;-44
2021/07/07 07:51:27;;;;;;;10.20;7.20;;;;;;;30.69;50.08;98843.27;1763909;80;21553;-45
2021/07/07 07:53:56;;;;;;;12.00;7.45;;;;;;;30.52;50.42;98846.98;1768521;79;21005;-48
2021/07/07 07:56:26;;;;;;;9.73;6.90;;;;;;;30.40;51.52;98847.20;1788305;80;21549;-47
2021/07/07 07:58:55;;;;;;;10.20;6.50;;;;;;;30.24;51.72;98842.20;1775906;79;21466;-45
2021/07/07 08:01:24;;;;;;;12.05;6.78;;;;;;;30.14;51.73;98852.14;1750027;80;21022;-48
2021/07/07 08:03:53;;;;;;;10.30;6.87;;;;;;;30.15;52.09;98850.44;1766401;80;21557;-44
2021/07/07 08:06:21;;;;;;;13.65;7.47;;;;;;;30.11;52.40;98856.91;1763691;80;21546;-53
2021/07/07 08:08:49;;;;;;;10.72;6.85;;;;;;;29.87;52.57;98850.23;1764175;80;21466;-52
2021/07/07 08:11:19;;;;;;;13.57;7.87;;;;;;;29.46;53.51;98855.14;1777388;80;21557;-45
2021/07/07 08:13:47;;;;;;;11.45;6.70;;;;;;;29.04;55.41;98855.72;1761789;81;21748;-48
2021/07/07 08:16:14;;;;;;;11.08;6.60;;;;;;;28.77;56.69;98853.69;1757400;79;21598;-42
2021/07/07 08:18:43;;;;;;;13.72;6.72;;;;;;;28.63;57.72;98865.91;1774713;80;21435;-44
2021/07/07 08:21:12;;;;;;;9.43;6.08;;;;;;;28.51;57.83;98871.46;1773516;80;22180;-45
2021/07/07 08:23:40;;;;;;;11.88;6.33;;;;;;;28.47;57.83;98869.72;1725319;82;21102;-41
2021/07/07 08:26:09;;;;;;;9.78;5.67;;;;;;;28.36;58.55;98871.98;1760010;81;21027;-43
2021/07/07 08:28:37;;;;;;;12.37;5.78;;;;;;;28.42;57.38;98863.91;1755229;80;21480;-42
2021/07/07 08:31:05;;;;;;;8.65;5.95;;;;;;;28.43;57.65;98867.41;1767736;80;20987;-42
2021/07/07 08:33:33;;;;;;;11.00;5.47;;;;;;;28.43;57.20;98871.48;1767837;79;21054;-43
2021/07/07 08:36:02;;;;;;;9.50;5.87;;;;;;;28.52;57.07;98868.19;1731638;81;21127;-45
2021/07/07 08:38:32;;;;;;;15.88;6.47;;;;;;;28.61;56.18;98862.14;1763626;80;20986;-46
2021/07/07 08:41:00;;;;;;;7.83;4.75;;;;;;;28.60;56.92;98865.98;1714173;82;21086;-45
2021/07/07 08:43:30;;;;;;;8.83;5.22;;;;;;;28.82;53.04;98873.05;1780591;79;21037;-47
2021/07/07 08:45:59;;;;;;;14.05;6.50;;;;;;;28.84;53.54;98870.23;1734024;82;21002;-42
2021/07/07 08:48:26;;;;;;;7.85;5.58;;;;;;;28.94;54.83;98865.59;1735533;81;21073;-47
2021/07/07 08:50:59;;;;;;;14.10;6.10;;;;;;;28.98;54.84;98872.75;1756523;81;21510;-46
2021/07/07 08:53:25;;;;;;;;;;;;;;;29.03;54.47;98870.42;1795104;80;21114;-41
2021/07/07 08:55:54;;;;;;;9.15;5.30;;;;;;;29.04;54.83;98874.16;1760950;79;20421;-42
2021/07/07 08:58:21;;;;;;;10.60;5.60;;;;;;;28.97;56.25;98871.73;1755586;80;21015;-44
2021/07/07 09:00:51;;;;;;;10.85;5.60;;;;;;;28.99;57.38;98874.34;1771997;80;21141;-47
2021/07/07 09:03:20;;;;;;;13.90;5.83;;;;;;;29.04;56.08;98869.29;1760718;80;21082;-47
2021/07/07 09:06:00;;;;;;;8.33;5.70;;;;;;;29.11;56.42;98877.70;1755756;80;21025;-47
2021/07/07 09:08:41;;;;;;;10.35;6.03;;;;;;;29.09;55.12;98892.95;1751941;81;21360;-44
2021/07/07 09:11:19;;;;;;;12.47;5.92;;;;;;;28.92;55.81;98888.96;1738904;81;21042;-47
2021/07/07 09:14:08;;;;;;;9.53;5.87;;;;;;;28.74;56.58;98893.69;1753171;81;20999;-45
2021/07/07 09:16:59;;;;;;;9.45;5.62;;;;;;;28.61;57.13;98891.18;1770496;80;21525;-41
2021/07/07 09:19:27;;;;;;;10.58;5.50;;;;;;;28.51;57.28;98884.23;1775746;81;21160;-51
2021/07/07 09:22:05;;;;;;;9.98;5.20;;;;;;;28.53;57.64;98885.48;1725746;81;21006;-45
2021/07/07 09:24:31;;;;;;;8.83;5.40;;;;;;;28.53;57.46;98896.89;1765477;79;21078;-44
2021/07/07 09:27:13;;;;;;;9.85;6.22;;;;;;;28.42;58.20;98891.58;1796976;79;20998;-46
2021/07/07 09:29:52;;;;;;;16.27;6.40;;;;;;;28.23;60.66;98900.86;1776390;79;21077;-44
2021/07/07 09:32:26;;;;;;;12.13;6.28;;;;;;;27.86;63.75;98896.94;1759608;81;21521;-43
2021/07/07 09:35:00;;;;;;;9.53;5.85;;;;;;;27.56;65.39;98902.75;1723005;80;21011;-46
2021/07/07 09:37:36;;;;;;;12.05;6.28;;;;;;;27.32;66.16;98907.28;1792209;80;20979;-44
2021/07/07 09:40:07;;;;;;;11.50;7.33;;;;;;;27.13;67.41;98910.84;1792102;80;21550;-46
2021/07/07 09:42:37;;;;;;;14.53;8.70;;;;;;;26.96;68.74;98922.38;1792286;80;21533;-54
2021/07/07 09:45:07;;;;;;;12.98;9.48;;;;;;;26.65;70.11;98931.32;1792192;80;21010;-44
2021/07/07 09:47:35;;;;;;;22.07;12.50;;;;;;;26.35;72.67;98930.20;1778728;79;21576;-45
2021/07/07 09:50:06;;;;;;;18.17;11.33;;;;;;;26.12;78.33;98937.53;1756142;80;21007;-48
2021/07/07 09:52:35;;;;;;;20.40;10.95;;;;;;;25.81;79.73;98946.93;1782232;80;21042;-44
2021/07/07 09:55:09;;;;;;;16.30;10.48;;;;;;;25.52;80.51;98947.29;1786656;80;20991;-44
2021/07/07 09:57:34;;;;;;;16.97;10.93;;;;;;;25.35;81.49;98936.33;1774473;80;20975;-45
2021/07/07 10:00:02;;;;;;;16.05;10.78;;;;;;;25.37;82.54;98936.27;1762134;80;21464;-44
2021/07/07 10:02:33;;;;;;;18.73;11.50;;;;;;;25.49;81.91;98945.73;1765547;80;21035;-45
2021/07/07 10:05:03;;;;;;;17.67;11.08;;;;;;;25.59;80.88;98937.42;1772299;80;21062;-50
2021/07/07 10:07:31;;;;;;;16.87;10.40;;;;;;;25.77;79.37;98943.79;1778162;80;21679;-48
2021/07/07 10:09:59;;;;;;;17.02;11.38;;;;;;;26.02;78.58;98949.92;1767403;80;21367;-47
2021/07/07 10:12:29;;;;;;;18.52;11.90;;;;;;;26.32;78.57;98951.63;1761373;80;21586;-54
2021/07/07 10:15:01;;;;;;;18.35;11.53;;;;;;;26.57;77.78;98951.57;1759776;81;21542;-56
2021/07/07 10:17:29;;;;;;;21.77;13.08;;;;;;;26.77;76.47;98945.60;1760784;80;21007;-47
2021/07/07 10:19:58;;;;;;;17.73;13.05;;;;;;;27.05;75.03;98945.38;1761628;80;21468;-45
2021/07/07 10:22:25;;;;;;;20.95;13.55;;;;;;;27.42;73.27;98960.31;1771814;80;21004;-50
2021/07/07 10:24:53;;;;;;;18.45;11.38;;;;;;;27.67;71.08;98954.12;1739038;81;21567;-49
2021/07/07 10:27:21;;;;;;;17.62;11.88;;;;;;;27.79;66.70;98959.72;1702956;84;21671;-44
2021/07/07 10:29:49;;;;;;;19.30;11.38;;;;;;;27.88;65.71;98955.67;1739385;82;21046;-51
2021/07/07 10:32:19;;;;;;;17.82;9.90;;;;;;;28.04;65.03;98960.84;1706940;81;21066;-48
2021/07/07 10:34:48;;;;;;;16.17;9.28;;;;;;;28.26;62.53;98959.03;1774226;80;21545;-53
2021/07/07 10:37:20;;;;;;;16.12;8.95;;;;;;;28.36;62.38;98957.37;1758510;80;21047;-47
2021/07/07 10:39:49;;;;;;;12.95;8.08;;;;;;;28.44;61.56;98959.81;1735518;82;21040;-44
2021/07/07 10:42:17;;;;;;;16.93;9.10;;;;;;;28.44;61.34;98957.91;1757868;80;21009;-49
2021/07/07 10:44:46;;;;;;;19.10;9.13;;;;;;;28.46;60.95;98961.11;1722464;81;21519;-52
2021/07/07 10:47:17;;;;;;;18.27;8.38;;;;;;;28.44;60.47;98959.26;1749893;81;21124;-47
2021/07/07 10:49:55;;;;;;;16.20;8.98;;;;;;;28.43;60.53;98960.94;1746752;81;21042;-47
2021/07/07 10:52:38;;;;;;;15.90;8.30;;;;;;;28.47;60.07;98965.97;1750402;81;21078;-55
2021/07/07 10:55:08;;;;;;;14.15;8.63;;;;;;;28.47;59.74;98964.61;1741163;81;21566;-50
2021/07/07 10:57:39;;;;;;;11.93;7.40;;;;;;;28.43;59.82;98964.45;1745888;82;21210;-54
2021/07/07 11:00:30;;;;;;;11.80;7.20;;;;;;;28.39;57.75;98968.95;1749383;80;21011;-45
2021/07/07 11:03:36;;;;;;;18.05;7.70;;;;;;;28.31;59.12;98965.64;1741468;81;21497;-52
2021/07/07 11:06:30;;;;;;;11.48;6.70;;;;;;;28.25;58.69;98964.22;1761885;80;21022;-45
2021/07/07 11:09:09;;;;;;;12.35;6.50;;;;;;;28.22;57.83;98961.61;1711694;81;21063;-50
2021/07/07 11:11:39;;;;;;;13.50;6.60;;;;;;;28.18;57.00;98964.72;1749764;81;21567;-46
2021/07/07 11:14:20;;;;;;;11.43;6.67;;;;;;;28.17;56.69;98965.05;1747508;80;20962;-46
2021/07/07 11:17:00;;;;;;;11.50;6.30;;;;;;;28.17;56.23;98965.84;1731539;81;21010;-45
2021/07/07 11:19:46;;;;;;;13.30;6.12;;;;;;;28.18;56.18;98963.36;1767135;80;21030;-45
2021/07/07 11:22:20;;;;;;;11.65;5.95;;;;;;;28.24;55.97;98961.28;1758851;80;21762;-52
2021/07/07 11:24:57;;;;;;;12.70;5.40;;;;;;;28.39;54.64;98961.34;1775100;79;21598;-47
2021/07/07 11:27:22;;;;;;;10.50;5.72;;;;;;;28.52;53.97;98968.51;1761287;80;21050;-54
2021/07/07 11:29:49;;;;;;;11.45;5.78;;;;;;;28.69;53.79;98966.30;1749682;81;21066;-52
2021/07/07 11:32:31;;;;;;;12.65;5.42;;;;;;;28.79;51.37;98963.23;1733881;82;21002;-46
2021/07/07 11:35:05;;;;;;;12.65;6.30;;;;;;;28.87;51.42;98962.95;1790191;79;21479;-53
2021/07/07 11:37:34;;;;;;;7.87;5.20;;;;;;;28.89;50.99;98954.72;1769588;80;21015;-52
2021/07/07 11:40:18;;;;;;;14.07;6.25;;;;;;;28.83;50.71;98960.09;1787526;80;21070;-47
2021/07/07 11:43:06;;;;;;;8.03;5.45;;;;;;;28.78;51.04;98954.84;1781368;80;21014;-48
2021/07/07 11:45:59;;;;;;;11.80;5.30;;;;;;;28.80;50.94;98960.75;1744386;81;21034;-44
2021/07/07 11:51:06;;;;;;;12.88;5.53;;;;;;;28.78;50.84;98956.98;1763568;79;21025;-45
2021/07/07 11:53:41;;;;;;;13.88;5.20;;;;;;;28.88;50.72;98953.69;1747505;80;21019;-49
2021/07/07 11:56:20;;;;;;;12.70;5.50;;;;;;;28.91;50.27;98956.56;1752128;80;20999;-53
2021/07/07 11:58:57;;;;;;;10.25;4.97;;;;;;;28.88;50.02;98957.20;1694865;82;20978;-50
2021/07/07 12:01:32;;;;;;;7.05;5.15;;;;;;;28.81;50.38;98950.13;1756848;80;21625;-48
2021/07/07 12:04:06;;;;;;;11.60;5.00;;;;;;;28.76;50.27;98953.02;1777214;80;21007;-49
2021/07/07 12:06:40;;;;;;;12.75;5.30;;;;;;;28.73;48.85;98958.55;1787738;79;21514;-52
2021/07/07 12:09:19;;;;;;;7.70;4.90;;;;;;;28.67;49.88;98962.53;1776198;79;21024;-46
2021/07/07 12:11:59;;;;;;;12.00;4.95;;;;;;;28.68;49.74;98968.78;1789141;79;21032;-47
2021/07/07 12:14:32;;;;;;;12.68;4.80;;;;;;;28.62;49.54;98957.84;1770639;79;21451;-47
2021/07/07 12:17:00;;;;;;;9.58;4.85;;;;;;;28.48;48.27;98975.13;1738692;80;21688;-45
2021/07/07 12:19:28;;;;;;;8.80;5.05;;;;;;;28.25;49.21;98983.99;1734572;81;21096;-47
2021/07/07 12:22:03;;;;;;;8.08;5.00;;;;;;;28.05;48.26;98981.39;1771741;80;20975;-47
2021/07/07 12:24:35;;;;;;;8.95;4.78;;;;;;;27.87;47.99;98980.34;1753212;81;21040;-51
2021/07/07 12:27:08;;;;;;;12.47;5.10;;;;;;;27.80;50.54;98980.83;1732327;82;21092;-44
2021/07/07 12:29:40;;;;;;;9.93;5.55;;;;;;;27.85;50.49;98985.30;1757570;79;20959;-50
2021/07/07 12:32:12;;;;;;;11.80;4.83;;;;;;;27.95;48.43;98989.05;1768595;80;21015;-46
2021/07/07 12:34:44;;;;;;;7.62;4.55;;;;;;;28.04;49.19;98982.52;1765789;80;21021;-48
2021/07/07 12:37:15;;;;;;;9.43;5.17;;;;;;;28.17;48.84;98986.16;1769982;80;21014;-48
2021/07/07 12:39:53;;;;;;;7.85;4.83;;;;;;;28.31;48.31;98996.25;1743080;80;21516;-50
2021/07/07 12:42:27;;;;;;;10.65;5.47;;;;;;;28.46;47.21;98983.36;1758442;79;21100;-52
2021/07/07 12:45:15;;;;;;;9.78;5.08;;;;;;;28.55;46.82;98996.31;1731690;82;21054;-49
2021/07/07 12:47:46;;;;;;;10.65;5.55;;;;;;;28.51;47.34;98983.19;1755485;80;21060;-43
2021/07/07 12:50:23;;;;;;;8.48;4.97;;;;;;;28.44;46.60;98976.09;1764343;80;21098;-49
2021/07/07 12:52:53;;;;;;;11.75;4.62;;;;;;;28.42;46.74;98981.05;1715703;80;21026;-50
2021/07/07 12:55:25;;;;;;;7.50;4.60;;;;;;;28.44;47.27;98982.30;1744578;81;21065;-45
2021/07/07 12:58:02;;;;;;;7.53;4.90;;;;;;;28.43;47.59;98983.42;1769873;80;21510;-52
2021/07/07 13:00:37;;;;;;;7.17;4.40;;;;;;;28.35;47.23;98988.88;1769352;81;21021;-57
2021/07/07 13:03:09;;;;;;;11.45;5.28;;;;;;;28.27;47.95;98979.59;1763352;81;21070;-47
2021/07/07 13:05:54;;;;;;;7.67;4.65;;;;;;;28.31;48.10;98981.91;1769957;80;21093;-49
2021/07/07 13:08:46;;;;;;;9.93;4.60;;;;;;;28.33;48.37;98982.97;1765228;80;21028;-51
2021/07/07 13:11:22;;;;;;;10.60;4.80;;;;;;;28.40;48.40;98990.86;1760614;80;21040;-46
2021/07/07 13:13:54;;;;;;;7.28;4.65;;;;;;;28.30;47.22;98989.81;1759433;80;21042;-43
2021/07/07 13:16:28;;;;;;;7.47;4.60;;;;;;;28.23;47.80;98990.86;1763426;80;21035;-44
2021/07/07 13:19:15;;;;;;;8.88;4.53;;;;;;;28.22;47.90;98991.98;1728759;81;20962;-48
2021/07/07 13:21:59;;;;;;;8.13;5.20;;;;;;;28.13;48.01;98985.20;1766507;80;21003;-46
2021/07/07 13:24:37;;;;;;;9.73;4.80;;;;;;;28.00;48.25;98994.31;1763488;81;21019;-46
2021/07/07 13:27:13;;;;;;;12.75;4.60;;;;;;;27.93;48.70;98992.61;1732212;80;21090;-62
2021/07/07 13:29:55;;;;;;;8.75;4.50;;;;;;;27.99;48.97;98992.16;1756921;79;21501;-46
2021/07/07 13:32:27;;;;;;;10.40;4.53;;;;;;;28.09;47.79;98990.22;1791501;79;21136;-44
2021/07/07 13:35:04;;;;;;;11.95;4.50;;;;;;;28.19;48.10;98987.19;1799834;79;21017;-42
2021/07/07 13:37:39;;;;;;;9.65;4.62;;;;;;;28.26;47.70;98993.70;1786308;79;20968;-44
2021/07/07 13:40:16;;;;;;;10.13;4.62;;;;;;;28.29;47.67;98993.64;1785057;80;21559;-45
2021/07/07 13:42:46;;;;;;;10.40;4.72;;;;;;;28.27;47.12;99001.28;1777876;79;21003;-45
2021/07/07 13:45:17;;;;;;;8.68;4.97;;;;;;;28.05;47.16;98992.23;1736885;81;21050;-44
2021/07/07 13:47:47;;;;;;;9.25;4.60;;;;;;;27.95;48.05;98998.53;1743663;81;21071;-44
2021/07/07 13:50:15;;;;;;;9.38;4.60;;;;;;;27.97;48.25;98991.66;1760730;79;21048;-44
2021/07/07 13:52:43;;;;;;;7.70;4.53;;;;;;;28.06;48.37;98993.03;1766759;80;21451;-43
2021/07/07 13:55:11;;;;;;;9.83;4.33;;;;;;;28.16;48.45;98994.59;1760656;81;21137;-45
2021/07/07 13:57:39;;;;;;;9.03;4.50;;;;;;;28.23;48.03;98990.30;1771898;81;21038;-45
